sensor_id;sensor_type;location;lat;lon;timestamp;temperature;humidity
66726;HTU21D;53638;51.062;5.804;2023-04-24T00:00:24;10.48;118.99
66726;HTU21D;53638;51.062;5.804;2023-04-24T00:19:47;10.35;118.99
66726;HTU21D;53638;51.062;5.804;2023-04-24T00:28:06;10.57;118.99
66726;HTU21D;53638;51.062;5.804;2023-04-24T00:44:10;10.58;118.99
66726;HTU21D;53638;51.062;5.804;2023-04-24T00:55:04;10.48;118.99
66726;HTU21D;53638;51.062;5.804;2023-04-24T00:58:46;10.54;118.99
66726;HTU21D;53638;51.062;5.804;2023-04-24T01:02:46;10.44;118.99
66726;HTU21D;53638;51.062;5.804;2023-04-24T01:10:44;10.53;118.99
66726;HTU21D;53638;51.062;5.804;2023-04-24T01:14:39;10.53;118.99
66726;HTU21D;53638;51.062;5.804;2023-04-24T01:22:44;10.55;118.99
66726;HTU21D;53638;51.062;5.804;2023-04-24T01:35:53;10.57;118.99
66726;HTU21D;53638;51.062;5.804;2023-04-24T01:39:56;10.52;118.99
66726;HTU21D;53638;51.062;5.804;2023-04-24T01:42:57;10.49;118.99
66726;HTU21D;53638;51.062;5.804;2023-04-24T01:46:49;10.49;118.99
66726;HTU21D;53638;51.062;5.804;2023-04-24T01:53:34;10.50;118.99
66726;HTU21D;53638;51.062;5.804;2023-04-24T01:56:33;10.51;118.99
66726;HTU21D;53638;51.062;5.804;2023-04-24T01:59:33;10.46;118.99
66726;HTU21D;53638;51.062;5.804;2023-04-24T02:02:30;10.29;118.99
66726;HTU21D;53638;51.062;5.804;2023-04-24T02:04:59;10.41;118.99
66726;HTU21D;53638;51.062;5.804;2023-04-24T02:08:16;10.45;118.99
66726;HTU21D;53638;51.062;5.804;2023-04-24T02:12:26;10.50;118.99
66726;HTU21D;53638;51.062;5.804;2023-04-24T02:14:53;10.45;118.99
66726;HTU21D;53638;51.062;5.804;2023-04-24T02:17:46;10.49;118.99
66726;HTU21D;53638;51.062;5.804;2023-04-24T02:21:13;10.45;118.99
66726;HTU21D;53638;51.062;5.804;2023-04-24T02:27:01;10.57;118.99
66726;HTU21D;53638;51.062;5.804;2023-04-24T02:30:26;10.53;118.99
66726;HTU21D;53638;51.062;5.804;2023-04-24T02:36:44;10.55;118.99
66726;HTU21D;53638;51.062;5.804;2023-04-24T02:39:22;10.46;118.99
66726;HTU21D;53638;51.062;5.804;2023-04-24T02:42:01;10.43;118.99
66726;HTU21D;53638;51.062;5.804;2023-04-24T02:44:49;10.48;118.99
66726;HTU21D;53638;51.062;5.804;2023-04-24T02:47:25;10.36;118.99
66726;HTU21D;53638;51.062;5.804;2023-04-24T02:49:51;10.20;118.99
66726;HTU21D;53638;51.062;5.804;2023-04-24T02:52:30;10.15;118.99
66726;HTU21D;53638;51.062;5.804;2023-04-24T02:55:13;10.12;118.99
66726;HTU21D;53638;51.062;5.804;2023-04-24T02:58:04;10.12;118.99
66726;HTU21D;53638;51.062;5.804;2023-04-24T03:01:01;10.20;118.99
66726;HTU21D;53638;51.062;5.804;2023-04-24T03:03:53;10.25;118.99
66726;HTU21D;53638;51.062;5.804;2023-04-24T03:06:45;10.22;118.99
66726;HTU21D;53638;51.062;5.804;2023-04-24T03:09:22;10.30;118.99
66726;HTU21D;53638;51.062;5.804;2023-04-24T03:12:21;10.33;118.99
66726;HTU21D;53638;51.062;5.804;2023-04-24T03:15:21;10.26;118.99
66726;HTU21D;53638;51.062;5.804;2023-04-24T03:18:20;10.30;118.99
66726;HTU21D;53638;51.062;5.804;2023-04-24T03:20:52;10.27;118.99
66726;HTU21D;53638;51.062;5.804;2023-04-24T03:23:23;10.29;118.99
66726;HTU21D;53638;51.062;5.804;2023-04-24T03:26:16;10.19;118.99
66726;HTU21D;53638;51.062;5.804;2023-04-24T03:29:10;10.14;118.99
66726;HTU21D;53638;51.062;5.804;2023-04-24T03:31:57;10.10;118.99
66726;HTU21D;53638;51.062;5.804;2023-04-24T03:34:44;10.13;118.99
66726;HTU21D;53638;51.062;5.804;2023-04-24T03:37:15;10.15;118.99
66726;HTU21D;53638;51.062;5.804;2023-04-24T03:40:05;10.08;118.99
66726;HTU21D;53638;51.062;5.804;2023-04-24T03:42:40;9.95;118.99
66726;HTU21D;53638;51.062;5.804;2023-04-24T03:45:08;9.97;118.99
66726;HTU21D;53638;51.062;5.804;2023-04-24T03:51:01;9.79;118.99
66726;HTU21D;53638;51.062;5.804;2023-04-24T03:53:55;9.55;118.99
66726;HTU21D;53638;51.062;5.804;2023-04-24T03:56:23;9.19;118.99
66726;HTU21D;53638;51.062;5.804;2023-04-24T03:59:17;8.90;118.99
66726;HTU21D;53638;51.062;5.804;2023-04-24T04:29:13;8.74;118.99
66726;HTU21D;53638;51.062;5.804;2023-04-24T04:37:45;8.79;118.99
66726;HTU21D;53638;51.062;5.804;2023-04-24T04:48:27;8.89;118.99
66726;HTU21D;53638;51.062;5.804;2023-04-24T04:55:36;8.94;118.99
66726;HTU21D;53638;51.062;5.804;2023-04-24T04:58:13;8.97;118.99
66726;HTU21D;53638;51.062;5.804;2023-04-24T05:00:40;8.77;118.99
66726;HTU21D;53638;51.062;5.804;2023-04-24T05:03:59;8.75;118.99
66726;HTU21D;53638;51.062;5.804;2023-04-24T05:06:28;8.80;118.99
66726;HTU21D;53638;51.062;5.804;2023-04-24T05:09:15;8.80;118.99
66726;HTU21D;53638;51.062;5.804;2023-04-24T05:15:06;8.82;118.99
66726;HTU21D;53638;51.062;5.804;2023-04-24T05:17:40;8.91;118.99
66726;HTU21D;53638;51.062;5.804;2023-04-24T05:20:07;8.76;118.99
66726;HTU21D;53638;51.062;5.804;2023-04-24T05:22:43;8.64;118.99
66726;HTU21D;53638;51.062;5.804;2023-04-24T05:26:07;8.63;118.99
66726;HTU21D;53638;51.062;5.804;2023-04-24T05:28:47;8.52;118.99
66726;HTU21D;53638;51.062;5.804;2023-04-24T05:31:54;8.48;118.99
66726;HTU21D;53638;51.062;5.804;2023-04-24T05:48:14;8.51;118.99
66726;HTU21D;53638;51.062;5.804;2023-04-24T06:30:00;7.99;118.99
66726;HTU21D;53638;51.062;5.804;2023-04-24T06:41:50;8.35;118.99
66726;HTU21D;53638;51.062;5.804;2023-04-24T06:50:08;8.20;118.99
66726;HTU21D;53638;51.062;5.804;2023-04-24T06:53:34;8.20;118.99
66726;HTU21D;53638;51.062;5.804;2023-04-24T07:24:43;7.65;118.99
66726;HTU21D;53638;51.062;5.804;2023-04-24T07:27:12;7.63;118.99
66726;HTU21D;53638;51.062;5.804;2023-04-24T07:30:07;7.54;118.99
66726;HTU21D;53638;51.062;5.804;2023-04-24T07:34:00;7.49;118.99
66726;HTU21D;53638;51.062;5.804;2023-04-24T07:36:54;7.49;118.99
66726;HTU21D;53638;51.062;5.804;2023-04-24T07:39:58;7.41;118.99
66726;HTU21D;53638;51.062;5.804;2023-04-24T07:42:48;7.39;118.99
66726;HTU21D;53638;51.062;5.804;2023-04-24T07:45:41;7.38;118.99
66726;HTU21D;53638;51.062;5.804;2023-04-24T08:47:23;8.35;118.99
66726;HTU21D;53638;51.062;5.804;2023-04-24T09:08:18;8.65;118.99
66726;HTU21D;53638;51.062;5.804;2023-04-24T09:19:34;8.93;118.99
66726;HTU21D;53638;51.062;5.804;2023-04-24T09:23:27;9.06;118.99
66726;HTU21D;53638;51.062;5.804;2023-04-24T09:26:40;9.11;118.99
66726;HTU21D;53638;51.062;5.804;2023-04-24T09:38:46;9.61;118.99
66726;HTU21D;53638;51.062;5.804;2023-04-24T10:20:28;9.97;118.99
66726;HTU21D;53638;51.062;5.804;2023-04-24T10:22:59;10.01;118.99
66726;HTU21D;53638;51.062;5.804;2023-04-24T10:25:29;10.00;118.99
66726;HTU21D;53638;51.062;5.804;2023-04-24T10:27:57;9.82;118.99
66726;HTU21D;53638;51.062;5.804;2023-04-24T10:30:28;9.66;118.99
66726;HTU21D;53638;51.062;5.804;2023-04-24T10:32:54;9.52;118.99
66726;HTU21D;53638;51.062;5.804;2023-04-24T10:35:22;9.49;118.99
66726;HTU21D;53638;51.062;5.804;2023-04-24T10:37:57;9.57;118.99
66726;HTU21D;53638;51.062;5.804;2023-04-24T10:40:27;9.76;118.99
66726;HTU21D;53638;51.062;5.804;2023-04-24T10:42:56;9.89;118.99
66726;HTU21D;53638;51.062;5.804;2023-04-24T10:45:23;10.05;118.99
66726;HTU21D;53638;51.062;5.804;2023-04-24T10:47:52;10.33;118.99
66726;HTU21D;53638;51.062;5.804;2023-04-24T10:50:19;10.54;118.99
66726;HTU21D;53638;51.062;5.804;2023-04-24T10:52:46;10.65;118.99
66726;HTU21D;53638;51.062;5.804;2023-04-24T10:55:13;10.72;118.99
66726;HTU21D;53638;51.062;5.804;2023-04-24T10:58:01;10.63;118.99
66726;HTU21D;53638;51.062;5.804;2023-04-24T11:00:28;10.60;118.99
66726;HTU21D;53638;51.062;5.804;2023-04-24T11:02:54;10.72;118.99
66726;HTU21D;53638;51.062;5.804;2023-04-24T11:05:21;10.87;118.99
66726;HTU21D;53638;51.062;5.804;2023-04-24T11:08:10;10.82;118.99
66726;HTU21D;53638;51.062;5.804;2023-04-24T11:10:44;10.74;118.99
66726;HTU21D;53638;51.062;5.804;2023-04-24T11:13:14;10.79;118.99
66726;HTU21D;53638;51.062;5.804;2023-04-24T11:15:42;10.80;118.99
66726;HTU21D;53638;51.062;5.804;2023-04-24T11:18:37;10.68;118.99
66726;HTU21D;53638;51.062;5.804;2023-04-24T11:21:11;10.51;118.99
66726;HTU21D;53638;51.062;5.804;2023-04-24T11:23:42;10.59;118.99
66726;HTU21D;53638;51.062;5.804;2023-04-24T11:26:16;10.64;118.99
66726;HTU21D;53638;51.062;5.804;2023-04-24T11:28:45;10.78;118.99
66726;HTU21D;53638;51.062;5.804;2023-04-24T11:31:38;11.42;118.99
66726;HTU21D;53638;51.062;5.804;2023-04-24T11:34:08;12.96;118.99
66726;HTU21D;53638;51.062;5.804;2023-04-24T11:36:39;14.09;118.99
66726;HTU21D;53638;51.062;5.804;2023-04-24T11:39:08;13.92;118.99
66726;HTU21D;53638;51.062;5.804;2023-04-24T11:41:37;14.47;118.99
66726;HTU21D;53638;51.062;5.804;2023-04-24T11:44:06;14.14;118.99
66726;HTU21D;53638;51.062;5.804;2023-04-24T11:46:32;13.31;118.99
66726;HTU21D;53638;51.062;5.804;2023-04-24T11:48:59;12.60;118.99
66726;HTU21D;53638;51.062;5.804;2023-04-24T11:51:28;12.11;118.99
66726;HTU21D;53638;51.062;5.804;2023-04-24T11:53:58;11.74;118.99
66726;HTU21D;53638;51.062;5.804;2023-04-24T11:56:26;11.52;118.99
66726;HTU21D;53638;51.062;5.804;2023-04-24T11:58:53;11.34;118.99
66726;HTU21D;53638;51.062;5.804;2023-04-24T12:01:21;11.15;118.99
66726;HTU21D;53638;51.062;5.804;2023-04-24T12:03:50;11.16;118.99
66726;HTU21D;53638;51.062;5.804;2023-04-24T12:06:25;11.45;118.99
66726;HTU21D;53638;51.062;5.804;2023-04-24T12:08:52;13.29;118.99
66726;HTU21D;53638;51.062;5.804;2023-04-24T12:11:21;15.07;118.99
66726;HTU21D;53638;51.062;5.804;2023-04-24T12:14:10;14.45;118.99
66726;HTU21D;53638;51.062;5.804;2023-04-24T12:16:38;13.93;118.99
66726;HTU21D;53638;51.062;5.804;2023-04-24T12:19:09;13.71;118.99
66726;HTU21D;53638;51.062;5.804;2023-04-24T12:21:35;13.21;118.99
66726;HTU21D;53638;51.062;5.804;2023-04-24T12:24:26;12.76;118.99
66726;HTU21D;53638;51.062;5.804;2023-04-24T12:27:00;12.41;118.99
66726;HTU21D;53638;51.062;5.804;2023-04-24T12:29:27;12.07;118.99
66726;HTU21D;53638;51.062;5.804;2023-04-24T12:31:54;11.79;118.99
66726;HTU21D;53638;51.062;5.804;2023-04-24T12:34:24;11.63;118.99
66726;HTU21D;53638;51.062;5.804;2023-04-24T12:36:53;11.56;118.99
66726;HTU21D;53638;51.062;5.804;2023-04-24T12:39:20;11.43;118.99
66726;HTU21D;53638;51.062;5.804;2023-04-24T12:44:30;11.82;118.99
66726;HTU21D;53638;51.062;5.804;2023-04-24T12:46:58;12.21;118.99
66726;HTU21D;53638;51.062;5.804;2023-04-24T12:49:24;12.13;118.99
66726;HTU21D;53638;51.062;5.804;2023-04-24T12:51:50;11.98;118.99
66726;HTU21D;53638;51.062;5.804;2023-04-24T12:54:16;12.15;118.99
66726;HTU21D;53638;51.062;5.804;2023-04-24T12:56:42;12.26;118.99
66726;HTU21D;53638;51.062;5.804;2023-04-24T12:59:11;12.27;118.99
66726;HTU21D;53638;51.062;5.804;2023-04-24T13:01:37;12.40;118.99
66726;HTU21D;53638;51.062;5.804;2023-04-24T13:04:03;12.62;118.99
66726;HTU21D;53638;51.062;5.804;2023-04-24T13:06:29;13.18;118.99
66726;HTU21D;53638;51.062;5.804;2023-04-24T13:08:56;13.67;118.99
66726;HTU21D;53638;51.062;5.804;2023-04-24T13:11:26;14.11;118.99
66726;HTU21D;53638;51.062;5.804;2023-04-24T13:13:52;14.01;118.99
66726;HTU21D;53638;51.062;5.804;2023-04-24T13:16:18;14.04;118.99
66726;HTU21D;53638;51.062;5.804;2023-04-24T13:18:46;13.78;118.99
66726;HTU21D;53638;51.062;5.804;2023-04-24T13:21:12;13.25;118.99
66726;HTU21D;53638;51.062;5.804;2023-04-24T13:23:38;12.87;118.99
66726;HTU21D;53638;51.062;5.804;2023-04-24T13:26:05;12.76;118.99
66726;HTU21D;53638;51.062;5.804;2023-04-24T13:28:31;13.02;118.99
66726;HTU21D;53638;51.062;5.804;2023-04-24T13:30:57;13.31;118.99
66726;HTU21D;53638;51.062;5.804;2023-04-24T13:33:22;14.63;118.99
66726;HTU21D;53638;51.062;5.804;2023-04-24T13:35:49;15.51;118.99
66726;HTU21D;53638;51.062;5.804;2023-04-24T13:38:15;15.65;118.99
66726;HTU21D;53638;51.062;5.804;2023-04-24T13:40:41;16.39;118.99
66726;HTU21D;53638;51.062;5.804;2023-04-24T13:43:07;16.57;118.99
66726;HTU21D;53638;51.062;5.804;2023-04-24T13:45:33;17.22;118.99
66726;HTU21D;53638;51.062;5.804;2023-04-24T13:47:59;17.48;118.99
66726;HTU21D;53638;51.062;5.804;2023-04-24T13:50:25;16.84;118.99
66726;HTU21D;53638;51.062;5.804;2023-04-24T13:52:51;17.13;118.99
66726;HTU21D;53638;51.062;5.804;2023-04-24T13:55:17;19.14;118.99
66726;HTU21D;53638;51.062;5.804;2023-04-24T13:57:43;19.02;118.99
66726;HTU21D;53638;51.062;5.804;2023-04-24T14:00:09;18.67;118.99
66726;HTU21D;53638;51.062;5.804;2023-04-24T14:02:36;18.11;118.99
66726;HTU21D;53638;51.062;5.804;2023-04-24T14:05:02;18.73;118.99
66726;HTU21D;53638;51.062;5.804;2023-04-24T14:07:29;20.57;115.23
66726;HTU21D;53638;51.062;5.804;2023-04-24T14:09:55;20.21;97.20
66726;HTU21D;53638;51.062;5.804;2023-04-24T14:12:22;18.93;97.85
66726;HTU21D;53638;51.062;5.804;2023-04-24T14:14:48;18.30;106.53
66726;HTU21D;53638;51.062;5.804;2023-04-24T14:17:14;19.30;113.67
66726;HTU21D;53638;51.062;5.804;2023-04-24T14:19:40;22.03;107.80
66726;HTU21D;53638;51.062;5.804;2023-04-24T14:22:06;23.81;96.72
66726;HTU21D;53638;51.062;5.804;2023-04-24T14:24:32;24.47;80.33
66726;HTU21D;53638;51.062;5.804;2023-04-24T14:26:58;23.51;76.25
66726;HTU21D;53638;51.062;5.804;2023-04-24T14:29:24;21.45;84.80
66726;HTU21D;53638;51.062;5.804;2023-04-24T14:31:51;21.58;81.25
66726;HTU21D;53638;51.062;5.804;2023-04-24T14:34:17;20.70;90.09
66726;HTU21D;53638;51.062;5.804;2023-04-24T14:36:43;19.74;108.56
66726;HTU21D;53638;51.062;5.804;2023-04-24T14:39:10;19.47;118.99
66726;HTU21D;53638;51.062;5.804;2023-04-24T14:41:36;18.36;118.99
66726;HTU21D;53638;51.062;5.804;2023-04-24T14:44:03;17.16;118.99
66726;HTU21D;53638;51.062;5.804;2023-04-24T14:46:30;16.45;118.99
66726;HTU21D;53638;51.062;5.804;2023-04-24T14:48:56;16.62;118.99
66726;HTU21D;53638;51.062;5.804;2023-04-24T14:51:23;17.30;112.23
66726;HTU21D;53638;51.062;5.804;2023-04-24T14:53:49;17.38;109.10
66726;HTU21D;53638;51.062;5.804;2023-04-24T14:56:15;16.79;113.00
66726;HTU21D;53638;51.062;5.804;2023-04-24T14:58:41;16.47;113.96
66726;HTU21D;53638;51.062;5.804;2023-04-24T15:01:07;16.82;103.06
66726;HTU21D;53638;51.062;5.804;2023-04-24T15:03:33;17.73;104.95
66726;HTU21D;53638;51.062;5.804;2023-04-24T15:05:58;18.96;99.88
66726;HTU21D;53638;51.062;5.804;2023-04-24T15:08:25;18.98;96.46
66726;HTU21D;53638;51.062;5.804;2023-04-24T15:10:51;19.27;99.35
66726;HTU21D;53638;51.062;5.804;2023-04-24T15:13:17;19.38;97.87
66726;HTU21D;53638;51.062;5.804;2023-04-24T15:15:45;21.00;94.81
66726;HTU21D;53638;51.062;5.804;2023-04-24T15:18:12;22.09;87.73
66726;HTU21D;53638;51.062;5.804;2023-04-24T15:20:38;21.39;85.87
66726;HTU21D;53638;51.062;5.804;2023-04-24T15:23:05;21.08;85.67
66726;HTU21D;53638;51.062;5.804;2023-04-24T15:25:31;20.29;86.44
66726;HTU21D;53638;51.062;5.804;2023-04-24T15:27:57;20.24;85.42
66726;HTU21D;53638;51.062;5.804;2023-04-24T15:30:24;19.40;84.75
66726;HTU21D;53638;51.062;5.804;2023-04-24T15:32:50;18.40;85.69
66726;HTU21D;53638;51.062;5.804;2023-04-24T15:35:16;17.49;91.47
66726;HTU21D;53638;51.062;5.804;2023-04-24T15:37:43;17.33;94.50
66726;HTU21D;53638;51.062;5.804;2023-04-24T15:40:13;16.88;95.63
66726;HTU21D;53638;51.062;5.804;2023-04-24T15:42:42;17.30;96.42
66726;HTU21D;53638;51.062;5.804;2023-04-24T15:45:09;18.09;92.61
66726;HTU21D;53638;51.062;5.804;2023-04-24T15:47:35;19.55;88.68
66726;HTU21D;53638;51.062;5.804;2023-04-24T15:50:02;21.40;84.86
66726;HTU21D;53638;51.062;5.804;2023-04-24T15:52:28;22.81;77.45
66726;HTU21D;53638;51.062;5.804;2023-04-24T15:54:54;23.37;73.32
66726;HTU21D;53638;51.062;5.804;2023-04-24T15:57:41;23.51;69.80
66726;HTU21D;53638;51.062;5.804;2023-04-24T16:00:08;23.47;69.07
66726;HTU21D;53638;51.062;5.804;2023-04-24T16:02:38;23.45;67.99
66726;HTU21D;53638;51.062;5.804;2023-04-24T16:05:05;23.15;67.27
66726;HTU21D;53638;51.062;5.804;2023-04-24T16:07:33;23.06;65.27
66726;HTU21D;53638;51.062;5.804;2023-04-24T16:09:59;22.62;65.43
66726;HTU21D;53638;51.062;5.804;2023-04-24T16:12:25;20.78;69.16
66726;HTU21D;53638;51.062;5.804;2023-04-24T16:14:52;19.95;72.42
66726;HTU21D;53638;51.062;5.804;2023-04-24T16:17:19;18.72;74.83
66726;HTU21D;53638;51.062;5.804;2023-04-24T16:19:46;17.58;79.32
66726;HTU21D;53638;51.062;5.804;2023-04-24T16:22:12;16.69;83.43
66726;HTU21D;53638;51.062;5.804;2023-04-24T16:24:37;16.07;87.20
66726;HTU21D;53638;51.062;5.804;2023-04-24T16:27:03;15.65;91.84
66726;HTU21D;53638;51.062;5.804;2023-04-24T16:29:30;15.30;95.46
66726;HTU21D;53638;51.062;5.804;2023-04-24T16:31:56;14.96;98.28
66726;HTU21D;53638;51.062;5.804;2023-04-24T16:34:22;14.69;99.22
66726;HTU21D;53638;51.062;5.804;2023-04-24T16:36:48;14.54;101.99
66726;HTU21D;53638;51.062;5.804;2023-04-24T16:39:14;14.43;103.57
66726;HTU21D;53638;51.062;5.804;2023-04-24T16:41:40;14.23;104.95
66726;HTU21D;53638;51.062;5.804;2023-04-24T16:44:06;14.10;106.30
66726;HTU21D;53638;51.062;5.804;2023-04-24T16:46:32;14.03;108.17
66726;HTU21D;53638;51.062;5.804;2023-04-24T16:48:58;14.01;110.17
66726;HTU21D;53638;51.062;5.804;2023-04-24T16:51:24;14.60;108.59
66726;HTU21D;53638;51.062;5.804;2023-04-24T16:53:51;15.48;103.87
66726;HTU21D;53638;51.062;5.804;2023-04-24T16:56:17;15.72;100.89
66726;HTU21D;53638;51.062;5.804;2023-04-24T16:58:43;15.81;100.84
66726;HTU21D;53638;51.062;5.804;2023-04-24T17:01:09;15.78;98.74
66726;HTU21D;53638;51.062;5.804;2023-04-24T17:03:35;15.47;98.70
66726;HTU21D;53638;51.062;5.804;2023-04-24T17:06:01;15.00;99.33
66726;HTU21D;53638;51.062;5.804;2023-04-24T17:08:27;14.56;99.61
66726;HTU21D;53638;51.062;5.804;2023-04-24T17:10:54;14.08;98.35
66726;HTU21D;53638;51.062;5.804;2023-04-24T17:13:20;13.71;99.67
66726;HTU21D;53638;51.062;5.804;2023-04-24T17:15:46;13.46;101.28
66726;HTU21D;53638;51.062;5.804;2023-04-24T17:18:12;13.37;102.31
66726;HTU21D;53638;51.062;5.804;2023-04-24T17:20:38;13.37;102.80
66726;HTU21D;53638;51.062;5.804;2023-04-24T17:23:03;13.43;102.70
66726;HTU21D;53638;51.062;5.804;2023-04-24T17:25:30;13.48;103.07
66726;HTU21D;53638;51.062;5.804;2023-04-24T17:27:55;13.49;103.87
66726;HTU21D;53638;51.062;5.804;2023-04-24T17:30:21;13.40;103.47
66726;HTU21D;53638;51.062;5.804;2023-04-24T17:32:47;13.29;103.73
66726;HTU21D;53638;51.062;5.804;2023-04-24T17:35:13;13.19;104.71
66726;HTU21D;53638;51.062;5.804;2023-04-24T17:37:40;13.20;106.43
66726;HTU21D;53638;51.062;5.804;2023-04-24T17:40:06;13.36;105.38
66726;HTU21D;53638;51.062;5.804;2023-04-24T17:42:32;13.44;105.18
66726;HTU21D;53638;51.062;5.804;2023-04-24T17:45:00;13.39;105.06
66726;HTU21D;53638;51.062;5.804;2023-04-24T17:47:26;13.30;105.85
66726;HTU21D;53638;51.062;5.804;2023-04-24T17:49:55;13.12;106.95
66726;HTU21D;53638;51.062;5.804;2023-04-24T17:52:21;12.96;108.21
66726;HTU21D;53638;51.062;5.804;2023-04-24T17:54:46;12.81;106.92
66726;HTU21D;53638;51.062;5.804;2023-04-24T17:57:14;12.64;106.84
66726;HTU21D;53638;51.062;5.804;2023-04-24T17:59:40;12.58;109.23
66726;HTU21D;53638;51.062;5.804;2023-04-24T18:02:06;12.52;109.72
66726;HTU21D;53638;51.062;5.804;2023-04-24T18:04:32;12.46;110.41
66726;HTU21D;53638;51.062;5.804;2023-04-24T18:06:58;12.63;110.17
66726;HTU21D;53638;51.062;5.804;2023-04-24T18:09:24;12.84;108.56
66726;HTU21D;53638;51.062;5.804;2023-04-24T18:11:50;12.90;107.46
66726;HTU21D;53638;51.062;5.804;2023-04-24T18:14:15;13.01;107.14
66726;HTU21D;53638;51.062;5.804;2023-04-24T18:16:41;13.03;105.50
66726;HTU21D;53638;51.062;5.804;2023-04-24T18:19:07;12.96;106.42
66726;HTU21D;53638;51.062;5.804;2023-04-24T18:21:33;12.82;106.34
66726;HTU21D;53638;51.062;5.804;2023-04-24T18:23:59;12.61;107.14
66726;HTU21D;53638;51.062;5.804;2023-04-24T18:26:26;12.40;108.84
66726;HTU21D;53638;51.062;5.804;2023-04-24T18:28:52;12.25;110.10
66726;HTU21D;53638;51.062;5.804;2023-04-24T18:31:17;12.12;110.33
66726;HTU21D;53638;51.062;5.804;2023-04-24T18:33:43;12.01;111.11
66726;HTU21D;53638;51.062;5.804;2023-04-24T18:36:09;11.90;111.29
66726;HTU21D;53638;51.062;5.804;2023-04-24T18:38:35;11.83;111.54
66726;HTU21D;53638;51.062;5.804;2023-04-24T18:41:01;11.76;112.50
66726;HTU21D;53638;51.062;5.804;2023-04-24T18:43:27;11.70;113.30
66726;HTU21D;53638;51.062;5.804;2023-04-24T18:45:53;11.67;114.22
66726;HTU21D;53638;51.062;5.804;2023-04-24T18:48:19;11.61;114.64
66726;HTU21D;53638;51.062;5.804;2023-04-24T18:50:45;11.53;115.77
66726;HTU21D;53638;51.062;5.804;2023-04-24T18:53:11;11.45;116.72
66726;HTU21D;53638;51.062;5.804;2023-04-24T18:55:39;11.34;117.93
66726;HTU21D;53638;51.062;5.804;2023-04-24T18:58:05;11.23;118.99
66726;HTU21D;53638;51.062;5.804;2023-04-24T19:00:31;11.12;118.99
66726;HTU21D;53638;51.062;5.804;2023-04-24T19:02:57;11.01;118.99
66726;HTU21D;53638;51.062;5.804;2023-04-24T19:05:23;10.92;118.99
66726;HTU21D;53638;51.062;5.804;2023-04-24T19:07:49;10.78;118.99
66726;HTU21D;53638;51.062;5.804;2023-04-24T19:10:15;10.67;118.99
66726;HTU21D;53638;51.062;5.804;2023-04-24T19:12:41;10.54;118.99
66726;HTU21D;53638;51.062;5.804;2023-04-24T19:15:08;10.48;118.99
66726;HTU21D;53638;51.062;5.804;2023-04-24T19:17:40;10.41;118.99
66726;HTU21D;53638;51.062;5.804;2023-04-24T19:20:06;10.36;118.99
66726;HTU21D;53638;51.062;5.804;2023-04-24T19:22:33;10.33;118.99
66726;HTU21D;53638;51.062;5.804;2023-04-24T19:24:59;10.28;118.99
66726;HTU21D;53638;51.062;5.804;2023-04-24T19:27:25;10.22;118.99
66726;HTU21D;53638;51.062;5.804;2023-04-24T19:29:54;10.14;118.99
66726;HTU21D;53638;51.062;5.804;2023-04-24T19:32:20;10.12;118.99
66726;HTU21D;53638;51.062;5.804;2023-04-24T19:34:45;10.08;118.99
66726;HTU21D;53638;51.062;5.804;2023-04-24T19:37:12;10.04;118.99
66726;HTU21D;53638;51.062;5.804;2023-04-24T19:39:38;10.04;118.99
66726;HTU21D;53638;51.062;5.804;2023-04-24T19:42:04;10.04;118.99
66726;HTU21D;53638;51.062;5.804;2023-04-24T19:44:30;10.03;118.99
66726;HTU21D;53638;51.062;5.804;2023-04-24T19:46:56;9.98;118.99
66726;HTU21D;53638;51.062;5.804;2023-04-24T19:49:22;9.94;118.99
66726;HTU21D;53638;51.062;5.804;2023-04-24T19:51:48;9.91;118.99
66726;HTU21D;53638;51.062;5.804;2023-04-24T19:54:14;9.88;118.99
66726;HTU21D;53638;51.062;5.804;2023-04-24T19:56:40;9.81;118.99
66726;HTU21D;53638;51.062;5.804;2023-04-24T19:59:06;9.78;118.99
66726;HTU21D;53638;51.062;5.804;2023-04-24T20:01:32;9.75;118.99
66726;HTU21D;53638;51.062;5.804;2023-04-24T20:03:58;9.70;118.99
66726;HTU21D;53638;51.062;5.804;2023-04-24T20:06:24;9.70;118.99
66726;HTU21D;53638;51.062;5.804;2023-04-24T20:08:50;9.72;118.99
66726;HTU21D;53638;51.062;5.804;2023-04-24T20:11:16;9.78;118.99
66726;HTU21D;53638;51.062;5.804;2023-04-24T20:13:42;9.84;118.99
66726;HTU21D;53638;51.062;5.804;2023-04-24T20:16:08;9.93;118.99
66726;HTU21D;53638;51.062;5.804;2023-04-24T20:18:34;10.01;118.99
66726;HTU21D;53638;51.062;5.804;2023-04-24T20:21:00;10.08;118.99
66726;HTU21D;53638;51.062;5.804;2023-04-24T20:23:26;10.18;118.99
66726;HTU21D;53638;51.062;5.804;2023-04-24T20:25:52;10.26;118.99
66726;HTU21D;53638;51.062;5.804;2023-04-24T20:28:24;10.29;118.99
66726;HTU21D;53638;51.062;5.804;2023-04-24T20:30:51;10.29;118.99
66726;HTU21D;53638;51.062;5.804;2023-04-24T20:33:17;10.29;118.99
66726;HTU21D;53638;51.062;5.804;2023-04-24T20:35:43;10.31;118.99
66726;HTU21D;53638;51.062;5.804;2023-04-24T20:38:09;10.35;118.99
66726;HTU21D;53638;51.062;5.804;2023-04-24T20:40:36;10.33;118.99
66726;HTU21D;53638;51.062;5.804;2023-04-24T20:43:02;10.33;118.99
66726;HTU21D;53638;51.062;5.804;2023-04-24T20:45:29;10.30;118.99
66726;HTU21D;53638;51.062;5.804;2023-04-24T20:47:55;10.30;118.99
66726;HTU21D;53638;51.062;5.804;2023-04-24T20:50:21;10.33;118.99
66726;HTU21D;53638;51.062;5.804;2023-04-24T20:52:47;10.38;118.99
66726;HTU21D;53638;51.062;5.804;2023-04-24T20:55:13;10.42;118.99
66726;HTU21D;53638;51.062;5.804;2023-04-24T20:57:39;10.44;118.99
66726;HTU21D;53638;51.062;5.804;2023-04-24T21:00:06;10.45;118.99
66726;HTU21D;53638;51.062;5.804;2023-04-24T21:02:33;10.45;118.99
66726;HTU21D;53638;51.062;5.804;2023-04-24T21:04:59;10.49;118.99
66726;HTU21D;53638;51.062;5.804;2023-04-24T21:07:25;10.50;118.99
66726;HTU21D;53638;51.062;5.804;2023-04-24T21:09:51;10.49;118.99
66726;HTU21D;53638;51.062;5.804;2023-04-24T21:12:17;10.51;118.99
66726;HTU21D;53638;51.062;5.804;2023-04-24T21:14:43;10.51;118.99
66726;HTU21D;53638;51.062;5.804;2023-04-24T21:17:09;10.50;118.99
66726;HTU21D;53638;51.062;5.804;2023-04-24T21:19:35;10.46;118.99
66726;HTU21D;53638;51.062;5.804;2023-04-24T21:22:01;10.45;118.99
66726;HTU21D;53638;51.062;5.804;2023-04-24T21:24:27;10.44;118.99
66726;HTU21D;53638;51.062;5.804;2023-04-24T21:26:53;10.42;118.99
66726;HTU21D;53638;51.062;5.804;2023-04-24T21:29:19;10.42;118.99
66726;HTU21D;53638;51.062;5.804;2023-04-24T21:31:45;10.40;118.99
66726;HTU21D;53638;51.062;5.804;2023-04-24T21:34:11;10.38;118.99
66726;HTU21D;53638;51.062;5.804;2023-04-24T21:36:37;10.36;118.99
66726;HTU21D;53638;51.062;5.804;2023-04-24T21:39:03;10.30;118.99
66726;HTU21D;53638;51.062;5.804;2023-04-24T21:41:29;10.29;118.99
66726;HTU21D;53638;51.062;5.804;2023-04-24T21:43:55;10.27;118.99